ID Time Temp Humidity Light PM2.5 PM10 Voltage Extra Firmware Position Fcnt TTN version Gateways Distance RSSI LSNR Radiosettings
2026-05-08 21:27:19 12.8125°C 41.625% 3.31V v5 52.1241 / 5.09576 7387 ttn.v3 0.452km -107 0 867.5MHz, SF9BW125, 4/5CR
2026-05-08 21:12:14 13.375°C 97.4375% 3.31V v5 52.1241 / 5.09576 7386 ttn.v3 0.452km -113 -4.25 868.1MHz, SF9BW125, 4/5CR
2026-05-08 20:57:09 14°C 6.8125% 3.31V v5 52.1241 / 5.09576 7385 ttn.v3 0.452km -107 1 867.3MHz, SF9BW125, 4/5CR
2026-05-08 20:42:03 14.6875°C 1.5% 3.31V v5 52.1241 / 5.09576 7384 ttn.v3 0.452km -110 -4.75 868.5MHz, SF9BW125, 4/5CR
2026-05-08 20:26:58 15.0625°C 95.6875% 3.31V v5 52.1241 / 5.09576 7383 ttn.v3 0.452km -111 1 867.1MHz, SF9BW125, 4/5CR
5.058km -110 -10.5 867.1MHz, SF9BW125, 4/5CR
2026-05-08 19:56:46 15.625°C 82.3125% 3.31V v5 52.1241 / 5.09576 7381 ttn.v3 0.452km -113 -5.75 867.9MHz, SF9BW125, 4/5CR
2026-05-08 19:41:40 15.8125°C 78.875% 3.31V v5 52.1241 / 5.09576 7380 ttn.v3 0.452km -113 -12.75 868.1MHz, SF9BW125, 4/5CR
2026-05-08 19:26:34 16.25°C 76.625% 3.31V v5 52.1241 / 5.09576 7379 ttn.v3 0.452km -108 -1.25 867.7MHz, SF9BW125, 4/5CR
2026-05-08 18:56:21 16.4375°C 73.125% 3.31V v5 52.1241 / 5.09576 7377 ttn.v3 0.452km -108 -3.75 867.5MHz, SF9BW125, 4/5CR
2026-05-08 18:41:15 16.625°C 72.6875% 3.31V v5 52.1241 / 5.09576 7376 ttn.v3 0.452km -111 -13.75 868.3MHz, SF9BW125, 4/5CR
2026-05-08 18:26:08 16.625°C 70.5625% 3.31V v5 52.1241 / 5.09576 7375 ttn.v3 0.452km -111 -2.25 867.3MHz, SF9BW125, 4/5CR
2026-05-08 18:11:02 16.5625°C 69.6875% 3.31V v5 52.1241 / 5.09576 7374 ttn.v3 0.452km -114 -10.5 868.1MHz, SF9BW125, 4/5CR
2026-05-08 17:55:56 16.8125°C 67.75% 3.31V v5 52.1241 / 5.09576 7373 ttn.v3 0.452km -109 1 867.1MHz, SF9BW125, 4/5CR
2026-05-08 17:40:49 16.8125°C 67.1875% 3.31V v5 52.1241 / 5.09576 7372 ttn.v3 0.452km -111 -3.25 868.5MHz, SF9BW125, 4/5CR
2026-05-08 17:25:43 16.9375°C 65.1875% 3.31V v5 52.1241 / 5.09576 7371 ttn.v3 0.452km -114 -5.5 867.9MHz, SF9BW125, 4/5CR
2026-05-08 17:10:37 17°C 66.4375% 3.31V v5 52.1241 / 5.09576 7370 ttn.v3 0.452km -113 -5.75 868.3MHz, SF9BW125, 4/5CR
2026-05-08 16:55:30 17.125°C 67.4375% 3.31V v5 52.1241 / 5.09576 7369 ttn.v3 0.452km -109 -0.5 867.7MHz, SF9BW125, 4/5CR
2026-05-08 16:40:23 17.125°C 70.5625% 3.31V v5 52.1241 / 5.09576 7368 ttn.v3 0.452km -111 -4.5 868.1MHz, SF9BW125, 4/5CR
2026-05-08 16:25:17 16.875°C 66.8125% 3.31V v5 52.1241 / 5.09576 7367 ttn.v3 0.452km -111 -0.75 867.5MHz, SF9BW125, 4/5CR
2026-05-08 16:10:10 17.0625°C 68.9375% 3.31V v5 52.1241 / 5.09576 7366 ttn.v3 0.452km -112 -3.25 868.5MHz, SF9BW125, 4/5CR
2026-05-08 15:55:03 17°C 69.6875% 3.31V v5 52.1241 / 5.09576 7365 ttn.v3 0.452km -107 0.25 867.3MHz, SF9BW125, 4/5CR
2026-05-08 15:39:57 17.125°C 69.125% 3.31V v5 52.1241 / 5.09576 7364 ttn.v3 0.452km -113 -9.25 868.3MHz, SF9BW125, 4/5CR
2026-05-08 15:24:50 17.25°C 71.25% 3.31V v5 52.1241 / 5.09576 7363 ttn.v3 0.452km -112 -1 867.1MHz, SF9BW125, 4/5CR
2026-05-08 15:09:44 17.4375°C 69.8125% 3.31V v5 52.1241 / 5.09576 7362 ttn.v3 0.452km -113 -3.25 868.1MHz, SF9BW125, 4/5CR
2026-05-08 14:54:36 17.1875°C 69.625% 3.31V v5 52.1241 / 5.09576 7361 ttn.v3 0.452km -113 -4.75 867.9MHz, SF9BW125, 4/5CR
2026-05-08 14:39:29 17.3125°C 69.25% 3.31V v5 52.1241 / 5.09576 7360 ttn.v3 0.452km -110 -5 868.5MHz, SF9BW125, 4/5CR
2026-05-08 14:24:22 17.4375°C 68.1875% 3.31V v5 52.1241 / 5.09576 7359 ttn.v3 0.452km -111 -2.75 867.7MHz, SF9BW125, 4/5CR
2026-05-08 14:09:16 17.5625°C 69.3125% 3.31V v5 52.1241 / 5.09576 7358 ttn.v3 0.452km -113 -7.75 868.3MHz, SF9BW125, 4/5CR
2026-05-08 13:54:09 17.5°C 66.1875% 3.31V v5 52.1241 / 5.09576 7357 ttn.v3 0.452km -112 -3.25 867.5MHz, SF9BW125, 4/5CR
2026-05-08 13:39:02 17.5°C 64% 3.31V v5 52.1241 / 5.09576 7356 ttn.v3 0.452km -113 -4.75 868.1MHz, SF9BW125, 4/5CR
2026-05-08 13:23:55 17.8125°C 65.0625% 3.31V v5 52.1241 / 5.09576 7355 ttn.v3 0.452km -111 -0.75 867.3MHz, SF9BW125, 4/5CR
2026-05-08 13:08:48 17.3125°C 69.0625% 3.31V v5 52.1241 / 5.09576 7354 ttn.v3 0.452km -113 -4.5 868.5MHz, SF9BW125, 4/5CR
2026-05-08 12:53:40 18.6875°C 66.4375% 3.31V v5 52.1241 / 5.09576 7353 ttn.v3 0.452km -113 -3.5 867.1MHz, SF9BW125, 4/5CR
2026-05-08 12:23:26 17.4375°C 107.188% 3.31V v5 52.1241 / 5.09576 7351 ttn.v3 0.452km -113 -3 867.9MHz, SF9BW125, 4/5CR
2026-05-08 12:08:19 17.3125°C 81.4375% 3.31V v5 52.1241 / 5.09576 7350 ttn.v3 0.452km -113 -6.25 868.1MHz, SF9BW125, 4/5CR
2026-05-08 11:53:12 16.6875°C 63.75% 3.31V v5 52.1241 / 5.09576 7349 ttn.v3 0.452km -113 -6.75 867.7MHz, SF9BW125, 4/5CR
2026-05-08 11:38:06 16.875°C 70.9375% 3.31V v5 52.1241 / 5.09576 7348 ttn.v3 0.452km -112 -9 868.5MHz, SF9BW125, 4/5CR
2026-05-08 11:22:59 15.9375°C 31.6875% 3.31V v5 52.1241 / 5.09576 7347 ttn.v3 0.452km -109 -0.75 867.5MHz, SF9BW125, 4/5CR
2026-05-08 11:07:53 15.5625°C 31.625% 3.31V v5 52.1241 / 5.09576 7346 ttn.v3 0.452km -111 -6 868.3MHz, SF9BW125, 4/5CR
2026-05-08 10:52:48 15°C 31.5625% 3.31V v5 52.1241 / 5.09576 7345 ttn.v3 0.452km -111 0.25 867.3MHz, SF9BW125, 4/5CR
2026-05-08 10:37:42 14.3125°C 31.5% 3.31V v5 52.1241 / 5.09576 7344 ttn.v3 0.452km -114 -12 868.1MHz, SF9BW125, 4/5CR
2026-05-08 10:22:37 13.8125°C 31.4375% 3.31V v5 52.1241 / 5.09576 7343 ttn.v3 0.452km -111 0.75 867.1MHz, SF9BW125, 4/5CR
2026-05-08 10:07:32 13.3125°C 31.375% 3.31V v5 52.1241 / 5.09576 7342 ttn.v3 0.452km -113 -6.25 868.5MHz, SF9BW125, 4/5CR
2026-05-08 09:52:27 12.875°C 31.375% 3.31V v5 52.1241 / 5.09576 7341 ttn.v3 0.452km -112 -1.5 867.9MHz, SF9BW125, 4/5CR
2026-05-08 09:37:23 12°C 31.25% 3.31V v5 52.1241 / 5.09576 7340 ttn.v3 0.452km -109 -6.75 868.3MHz, SF9BW125, 4/5CR
2026-05-08 09:22:19 11.4375°C 31.1875% 3.31V v5 52.1241 / 5.09576 7339 ttn.v3 0.452km -108 -1.5 867.7MHz, SF9BW125, 4/5CR
2026-05-08 09:07:15 10.875°C 31.125% 3.31V v5 52.1241 / 5.09576 7338 ttn.v3 0.452km -113 -3.75 868.1MHz, SF9BW125, 4/5CR
2026-05-08 08:52:11 10.6875°C 31.125% 3.31V v5 52.1241 / 5.09576 7337 ttn.v3 0.452km -111 -1 867.5MHz, SF9BW125, 4/5CR
2026-05-08 08:37:08 10.5°C 31.0625% 3.31V v5 52.1241 / 5.09576 7336 ttn.v3 0.452km -108 -1.75 868.5MHz, SF9BW125, 4/5CR
2026-05-08 08:22:04 10.1875°C 31.0625% 3.31V v5 52.1241 / 5.09576 7335 ttn.v3 0.452km -111 -1.75 867.3MHz, SF9BW125, 4/5CR
2026-05-08 08:07:01 10°C 31.0625% 3.31V v5 52.1241 / 5.09576 7334 ttn.v3 0.452km -111 -3.5 868.3MHz, SF9BW125, 4/5CR
2026-05-08 07:51:57 9.875°C 31.0625% 3.31V v5 52.1241 / 5.09576 7333 ttn.v3 0.452km -111 0.5 867.1MHz, SF9BW125, 4/5CR
2026-05-08 07:36:54 9.75°C 31% 3.31V v5 52.1241 / 5.09576 7332 ttn.v3 0.452km -113 -2.25 868.1MHz, SF9BW125, 4/5CR
2026-05-08 07:21:51 9.5625°C 31% 3.31V v5 52.1241 / 5.09576 7331 ttn.v3 0.452km -110 -4.75 867.9MHz, SF9BW125, 4/5CR
2026-05-08 07:06:47 9.5°C 31% 3.31V v5 52.1241 / 5.09576 7330 ttn.v3 0.452km -109 -0.25 868.5MHz, SF9BW125, 4/5CR
2026-05-08 06:51:44 9.4375°C 31% 3.31V v5 52.1241 / 5.09576 7329 ttn.v3 0.452km -106 1.5 867.7MHz, SF9BW125, 4/5CR
2026-05-08 06:21:38 9.5°C 31% 3.31V v5 52.1241 / 5.09576 7327 ttn.v3 0.452km -109 -1.5 867.5MHz, SF9BW125, 4/5CR
2026-05-08 06:06:35 9.5625°C 31% 3.31V v5 52.1241 / 5.09576 7326 ttn.v3 0.452km -112 -3.25 868.1MHz, SF9BW125, 4/5CR
2026-05-08 05:51:32 9.6875°C 31% 3.31V v5 52.1241 / 5.09576 7325 ttn.v3 0.452km -109 1.5 867.3MHz, SF9BW125, 4/5CR
2026-05-08 05:36:29 9.8125°C 31% 3.31V v5 52.1241 / 5.09576 7324 ttn.v3 0.452km -108 -1 868.5MHz, SF9BW125, 4/5CR
2026-05-08 05:21:25 9.8125°C 31% 3.31V v5 52.1241 / 5.09576 7323 ttn.v3 0.452km -111 1.5 867.1MHz, SF9BW125, 4/5CR
5.058km -109 -14.5 867.1MHz, SF9BW125, 4/5CR
2026-05-08 05:06:22 9.9375°C 31.0625% 3.31V v5 52.1241 / 5.09576 7322 ttn.v3 0.452km -110 -3.25 868.3MHz, SF9BW125, 4/5CR
2026-05-08 04:51:19 10.0625°C 31.0625% 3.31V v5 52.1241 / 5.09576 7321 ttn.v3 0.452km -111 -5.25 867.9MHz, SF9BW125, 4/5CR
2026-05-08 04:36:15 10.0625°C 31.0625% 3.31V v5 52.1241 / 5.09576 7320 ttn.v3 0.452km -111 -4.75 868.1MHz, SF9BW125, 4/5CR
2026-05-08 04:21:12 10.125°C 31.0625% 3.31V v5 52.1241 / 5.09576 7319 ttn.v3 0.452km -107 0.25 867.7MHz, SF9BW125, 4/5CR
2026-05-08 04:06:08 10.25°C 31.0625% 3.31V v5 52.1241 / 5.09576 7318 ttn.v3 0.452km -111 -4 868.5MHz, SF9BW125, 4/5CR
2026-05-08 03:51:05 10.375°C 65.4375% 3.31V v5 52.1241 / 5.09576 7317 ttn.v3 0.452km -111 -6.5 867.5MHz, SF9BW125, 4/5CR
2026-05-08 03:36:02 10.5°C 114.625% 3.31V v5 52.1241 / 5.09576 7316 ttn.v3 0.452km -109 0.75 868.3MHz, SF9BW125, 4/5CR
2026-05-08 03:20:58 10.625°C 116.938% 3.31V v5 52.1241 / 5.09576 7315 ttn.v3 0.452km -108 -0.25 867.3MHz, SF9BW125, 4/5CR
2026-05-08 03:05:54 10.875°C 89.125% 3.31V v5 52.1241 / 5.09576 7314 ttn.v3 0.452km -114 -7.75 868.1MHz, SF9BW125, 4/5CR
2026-05-08 02:50:50 11°C 94.4375% 3.31V v5 52.1241 / 5.09576 7313 ttn.v3 0.452km -111 0.25 867.1MHz, SF9BW125, 4/5CR
5.058km -107 -14.25 867.1MHz, SF9BW125, 4/5CR
2026-05-08 02:35:47 11.0625°C 98.9375% 3.31V v5 52.1241 / 5.09576 7312 ttn.v3 0.452km -111 -0.25 868.5MHz, SF9BW125, 4/5CR
2026-05-08 02:20:43 11.125°C 103.938% 3.31V v5 52.1241 / 5.09576 7311 ttn.v3 0.452km -112 -2 867.9MHz, SF9BW125, 4/5CR
2026-05-08 01:50:35 11.4375°C 5.375% 3.31V v5 52.1241 / 5.09576 7309 ttn.v3 0.452km -109 0.25 867.7MHz, SF9BW125, 4/5CR
5.058km -108 -11.75 867.7MHz, SF9BW125, 4/5CR
2026-05-08 01:35:31 11.5°C 14.6875% 3.31V v5 52.1241 / 5.09576 7308 ttn.v3 0.452km -112 -5.25 868.1MHz, SF9BW125, 4/5CR
2026-05-08 01:20:27 11.625°C 33% 3.31V v5 52.1241 / 5.09576 7307 ttn.v3 0.452km -107 -0.25 867.5MHz, SF9BW125, 4/5CR
2026-05-08 01:05:22 11.75°C 44.4375% 3.31V v5 52.1241 / 5.09576 7306 ttn.v3 0.452km -109 0.75 868.5MHz, SF9BW125, 4/5CR
2026-05-08 00:50:18 11.8125°C 51.6875% 3.31V v5 52.1241 / 5.09576 7305 ttn.v3 0.452km -107 0 867.3MHz, SF9BW125, 4/5CR
2026-05-08 00:35:14 11.875°C 63.8125% 3.31V v5 52.1241 / 5.09576 7304 ttn.v3 0.452km -109 -5.75 868.3MHz, SF9BW125, 4/5CR
2026-05-08 00:20:10 12.0625°C 78.375% 3.31V v5 52.1241 / 5.09576 7303 ttn.v3 0.452km -111 1 867.1MHz, SF9BW125, 4/5CR
2026-05-08 00:05:05 12.1875°C 91% 3.31V v5 52.1241 / 5.09576 7302 ttn.v3 0.452km -111 -2.5 868.1MHz, SF9BW125, 4/5CR
2026-05-07 23:50:01 12.3125°C 104.875% 3.31V v5 52.1241 / 5.09576 7301 ttn.v3 0.452km -112 -3.5 867.9MHz, SF9BW125, 4/5CR
2026-05-07 23:34:56 12.375°C 114.312% 3.31V v5 52.1241 / 5.09576 7300 ttn.v3 0.452km -107 1.75 868.5MHz, SF9BW125, 4/5CR
2026-05-07 23:19:52 12.5°C -5.375% 3.31V v5 52.1241 / 5.09576 7299 ttn.v3 0.452km -109 -3 867.7MHz, SF9BW125, 4/5CR
2026-05-07 22:49:42 12.9375°C 9.6875% 3.31V v5 52.1241 / 5.09576 7297 ttn.v3 0.452km -111 -4.5 867.5MHz, SF9BW125, 4/5CR
2026-05-07 22:35:13 13.0625°C 7.9375% 3.31V v5 52.1241 / 5.09576 7296 ttn.v3 0.452km -114 -10.75 868.1MHz, SF12BW125, 4/5CR
2026-05-07 22:19:32 13.25°C -2.0625% 3.31V v5 52.1241 / 5.09573 7295 ttn.v3 0.453km -108 1.75 867.3MHz, SF9BW125, 4/5CR
2026-05-07 22:04:27 13.5°C 112% 3.31V v5 52.1241 / 5.09573 7294 ttn.v3 0.453km -111 -2.25 868.5MHz, SF9BW125, 4/5CR
2026-05-07 21:49:22 13.6875°C 101.188% 3.31V v5 52.1241 / 5.09573 7293 ttn.v3 0.453km -108 2 867.1MHz, SF9BW125, 4/5CR
2026-05-07 21:19:12 14.125°C 85.5625% 3.31V v5 52.1241 / 5.09573 7291 ttn.v3 0.453km -113 -5 867.9MHz, SF9BW125, 4/5CR
2026-05-07 21:04:07 14.1875°C 83.125% 3.31V v5 52.1241 / 5.09573 7290 ttn.v3 0.453km -112 -8 868.1MHz, SF9BW125, 4/5CR
2026-05-07 20:49:02 14.375°C 82.375% 3.31V v5 52.1241 / 5.09573 7289 ttn.v3 0.453km -107 -1 867.7MHz, SF9BW125, 4/5CR
2026-05-07 20:33:56 14.4375°C 84.3125% 3.31V v5 52.1241 / 5.09573 7288 ttn.v3 0.453km -111 -2 868.5MHz, SF9BW125, 4/5CR
2026-05-07 20:18:51 14.625°C 81.125% 3.31V v5 52.1241 / 5.09573 7287 ttn.v3 0.453km -108 -0.25 867.5MHz, SF9BW125, 4/5CR
2026-05-07 19:48:40 14.875°C 76.75% 3.31V v5 52.1241 / 5.09573 7285 ttn.v3 0.453km -111 -4.25 867.3MHz, SF9BW125, 4/5CR
2026-05-07 19:33:35 15.0625°C 73.75% 3.31V v5 52.1241 / 5.09573 7284 ttn.v3 0.453km -114 -10.5 868.1MHz, SF9BW125, 4/5CR
2026-05-07 19:18:29 15.125°C 72.0625% 3.31V v5 52.1241 / 5.09573 7283 ttn.v3 0.453km -113 -6.25 867.1MHz, SF9BW125, 4/5CR
2026-05-07 19:03:23 15.25°C 70.3125% 3.31V v5 52.1241 / 5.09573 7282 ttn.v3 0.453km -109 0.25 868.5MHz, SF9BW125, 4/5CR
2026-05-07 18:48:18 15.5°C 67.8125% 3.31V v5 52.1241 / 5.09573 7281 ttn.v3 0.453km -114 -7.25 867.9MHz, SF9BW125, 4/5CR
5.06km -109 -12 867.9MHz, SF9BW125, 4/5CR
2026-05-07 18:18:06 16.1875°C 65.0625% 3.31V v5 52.1241 / 5.09573 7279 ttn.v3 0.453km -112 -7.75 867.7MHz, SF9BW125, 4/5CR
5.06km -104 -13.5 867.7MHz, SF9BW125, 4/5CR
2026-05-07 18:03:00 16.375°C 64.875% 3.31V v5 52.1241 / 5.09573 7278 ttn.v3 0.453km -111 -4.75 868.1MHz, SF9BW125, 4/5CR
5.06km -104 -8 868.1MHz, SF9BW125, 4/5CR
2026-05-07 17:47:53 17.5625°C 61.6875% 3.31V v5 52.1241 / 5.09573 7277 ttn.v3 0.453km -110 -11.25 867.5MHz, SF9BW125, 4/5CR
2026-05-07 17:32:46 19.125°C 56.1875% 3.31V v5 52.1241 / 5.09573 7276 ttn.v3 0.453km -111 -3.25 868.5MHz, SF9BW125, 4/5CR
2026-05-07 17:17:39 16.875°C 62.5% 3.31V v5 52.1241 / 5.09573 7275 ttn.v3 0.453km -109 -3 867.3MHz, SF9BW125, 4/5CR
2026-05-07 17:02:33 16.625°C 64.125% 3.31V v5 52.1241 / 5.09573 7274 ttn.v3 0.453km -113 -4.5 868.3MHz, SF9BW125, 4/5CR
2026-05-07 16:47:27 16.375°C 63.75% 3.31V v5 52.1241 / 5.09573 7273 ttn.v3 0.453km -113 -1.25 867.1MHz, SF9BW125, 4/5CR
2026-05-07 16:32:20 16.375°C 62.625% 3.31V v5 52.1241 / 5.09573 7272 ttn.v3 0.453km -113 -8.5 868.1MHz, SF9BW125, 4/5CR
2026-05-07 16:17:14 16.5°C 60.375% 3.31V v5 52.1241 / 5.09573 7271 ttn.v3 0.453km -110 -4.75 867.9MHz, SF9BW125, 4/5CR
2026-05-07 16:02:08 16.8125°C 60.8125% 3.31V v5 52.1241 / 5.09573 7270 ttn.v3 0.453km -110 -5 868.5MHz, SF9BW125, 4/5CR
2026-05-07 15:47:00 18.1875°C 55% 3.31V v5 52.1241 / 5.09573 7269 ttn.v3 0.453km -111 -4.75 867.7MHz, SF9BW125, 4/5CR
2026-05-07 15:31:52 19.875°C 53.25% 3.31V v5 52.1241 / 5.09573 7268 ttn.v3 0.453km -111 -8.5 868.3MHz, SF9BW125, 4/5CR
2026-05-07 15:01:36 19.8125°C 55.125% 3.31V v5 52.1241 / 5.09573 7266 ttn.v3 0.453km -112 -7.25 868.1MHz, SF9BW125, 4/5CR
2026-05-07 14:46:28 19.375°C 58.125% 3.31V v5 52.1241 / 5.09573 7265 ttn.v3 0.453km -109 -0.25 867.3MHz, SF9BW125, 4/5CR
2026-05-07 14:31:21 18.1875°C 61% 3.31V v5 52.1241 / 5.09573 7264 ttn.v3 0.453km -112 -4.5 868.5MHz, SF9BW125, 4/5CR
2026-05-07 14:16:14 18.375°C 60.625% 3.31V v5 52.1241 / 5.09573 7263 ttn.v3 0.453km -113 -4 867.1MHz, SF9BW125, 4/5CR
2026-05-07 13:30:52 18.5°C 59.875% 3.31V v5 52.1241 / 5.09573 7260 ttn.v3 0.453km -113 -7.75 868.1MHz, SF9BW125, 4/5CR
2026-05-07 13:15:45 18.125°C 64% 3.31V v5 52.1241 / 5.09573 7259 ttn.v3 0.453km -113 -6.5 867.7MHz, SF9BW125, 4/5CR
2026-05-07 12:45:31 17.375°C 66.1875% 3.31V v5 52.1241 / 5.09573 7257 ttn.v3 0.453km -109 -0.75 867.5MHz, SF9BW125, 4/5CR
2026-05-07 12:15:18 17.0625°C 68.3125% 3.31V v5 52.1241 / 5.09573 7255 ttn.v3 0.453km -109 -1 867.3MHz, SF9BW125, 4/5CR
2026-05-07 12:00:11 16.625°C 72.75% 3.31V v5 52.1241 / 5.09573 7254 ttn.v3 0.453km -113 -6.75 868.1MHz, SF9BW125, 4/5CR
2026-05-07 11:45:05 16.3125°C 71.5% 3.31V v5 52.1241 / 5.09573 7253 ttn.v3 0.453km -109 1 867.1MHz, SF9BW125, 4/5CR
2026-05-07 11:29:59 16.0625°C 74.625% 3.31V v5 52.1241 / 5.09573 7252 ttn.v3 0.453km -111 -12.5 868.5MHz, SF9BW125, 4/5CR
2026-05-07 11:14:53 16.0625°C 73.875% 3.31V v5 52.1241 / 5.09573 7251 ttn.v3 0.453km -113 -10.5 867.9MHz, SF9BW125, 4/5CR
2026-05-07 10:44:41 15°C 57.5% 3.31V v5 52.1241 / 5.09573 7249 ttn.v3 0.453km -110 -5.25 867.7MHz, SF9BW125, 4/5CR
2026-05-07 10:29:36 15°C 59.0625% 3.31V v5 52.1241 / 5.09573 7248 ttn.v3 0.453km -114 -13.75 868.1MHz, SF9BW125, 4/5CR
2026-05-07 10:14:30 14.5°C 31.5% 3.31V v5 52.1241 / 5.09573 7247 ttn.v3 0.453km -111 -3.5 867.5MHz, SF9BW125, 4/5CR
2026-05-07 09:59:25 13.9375°C 40.8125% 3.31V v5 52.1241 / 5.09573 7246 ttn.v3 0.453km -112 -5.75 868.5MHz, SF9BW125, 4/5CR
2026-05-07 09:44:20 13.8125°C 31.5% 3.31V v5 52.1241 / 5.09573 7245 ttn.v3 0.453km -111 -4.25 867.3MHz, SF9BW125, 4/5CR
2026-05-07 09:29:15 13.25°C 31.375% 3.31V v5 52.1241 / 5.09573 7244 ttn.v3 0.453km -111 -5 868.3MHz, SF9BW125, 4/5CR
2026-05-07 09:14:11 12.1875°C 31.25% 3.31V v5 52.1241 / 5.09573 7243 ttn.v3 0.453km -107 2.75 867.1MHz, SF9BW125, 4/5CR
2026-05-07 08:59:06 12°C 31.25% 3.31V v5 52.1241 / 5.09573 7242 ttn.v3 0.453km -111 -6.25 868.1MHz, SF9BW125, 4/5CR
2026-05-07 08:44:03 10.9375°C 31.125% 3.31V v5 52.1241 / 5.09573 7241 ttn.v3 0.453km -110 -7.5 867.9MHz, SF9BW125, 4/5CR
2026-05-07 08:28:59 10.5625°C 31.125% 3.31V v5 52.1241 / 5.09573 7240 ttn.v3 0.453km -109 -1.75 868.5MHz, SF9BW125, 4/5CR
2026-05-07 08:13:56 9.8125°C 31% 3.31V v5 52.1241 / 5.09573 7239 ttn.v3 0.453km -109 -4.75 867.7MHz, SF9BW125, 4/5CR
2026-05-07 07:58:53 8.75°C 30.9375% 3.31V v5 52.1241 / 5.09573 7238 ttn.v3 0.453km -111 -9.5 868.3MHz, SF9BW125, 4/5CR
2026-05-07 07:43:51 8°C 30.875% 3.31V v5 52.1241 / 5.09573 7237 ttn.v3 0.453km -109 1.25 867.5MHz, SF9BW125, 4/5CR
2026-05-07 07:28:48 7.5°C 30.8125% 3.31V v5 52.1241 / 5.09573 7236 ttn.v3 0.453km -112 -6 868.1MHz, SF9BW125, 4/5CR
2026-05-07 07:13:46 7.375°C 30.75% 3.31V v5 52.1241 / 5.09573 7235 ttn.v3 0.453km -107 1.25 867.3MHz, SF9BW125, 4/5CR
2026-05-07 06:58:44 7.375°C 30.75% 3.31V v5 52.1241 / 5.09573 7234 ttn.v3 0.453km -113 -6.25 868.5MHz, SF9BW125, 4/5CR
2026-05-07 06:43:41 7.1875°C 30.75% 3.31V v5 52.1241 / 5.09573 7233 ttn.v3 0.453km -109 0.75 867.1MHz, SF9BW125, 4/5CR
2026-05-07 06:13:37 6.375°C 30.6875% 3.31V v5 52.1241 / 5.09573 7231 ttn.v3 0.453km -111 -0.5 867.9MHz, SF9BW125, 4/5CR
2026-05-07 05:58:35 6.0625°C 30.625% 3.31V v5 52.1241 / 5.09573 7230 ttn.v3 0.453km -113 -1 868.1MHz, SF9BW125, 4/5CR
2026-05-07 05:43:33 6°C 30.625% 3.31V v5 52.1241 / 5.09573 7229 ttn.v3 0.453km -108 0.25 867.7MHz, SF9BW125, 4/5CR
2026-05-07 05:28:31 5.9375°C 30.625% 3.31V v5 52.1241 / 5.09573 7228 ttn.v3 0.453km -109 -2 868.5MHz, SF9BW125, 4/5CR
2026-05-07 05:13:29 5.9375°C 30.625% 3.31V v5 52.1241 / 5.09573 7227 ttn.v3 0.453km -107 0.25 867.5MHz, SF9BW125, 4/5CR
2026-05-07 04:58:28 6.0625°C 30.625% 3.31V v5 52.1241 / 5.09573 7226 ttn.v3 0.453km -109 -1.75 868.3MHz, SF9BW125, 4/5CR
2026-05-07 04:43:26 6°C 30.625% 3.31V v5 52.1241 / 5.09573 7225 ttn.v3 0.453km -108 0.5 867.3MHz, SF9BW125, 4/5CR
2026-05-07 04:28:24 6.3125°C 30.6875% 3.31V v5 52.1241 / 5.09573 7224 ttn.v3 0.453km -113 -1.25 868.1MHz, SF9BW125, 4/5CR
2026-05-07 04:13:22 6.625°C 30.6875% 3.31V v5 52.1241 / 5.09573 7223 ttn.v3 0.453km -111 0.75 867.1MHz, SF9BW125, 4/5CR
2026-05-07 03:58:20 6.8125°C 30.75% 3.31V v5 52.1241 / 5.09573 7222 ttn.v3 0.453km -109 -2.25 868.5MHz, SF9BW125, 4/5CR
2026-05-07 03:43:18 7°C 30.75% 3.31V v5 52.1241 / 5.09573 7221 ttn.v3 0.453km -113 -2.75 867.9MHz, SF9BW125, 4/5CR
2026-05-07 03:28:16 7.1875°C 30.75% 3.31V v5 52.1241 / 5.09573 7220 ttn.v3 0.453km -109 -2.75 868.3MHz, SF9BW125, 4/5CR
2026-05-07 03:13:14 7.375°C 30.75% 3.31V v5 52.1241 / 5.09573 7219 ttn.v3 0.453km -109 0.25 867.7MHz, SF9BW125, 4/5CR
5.06km -107 -11.75 867.7MHz, SF9BW125, 4/5CR
2026-05-07 02:58:11 7.6875°C 30.8125% 3.31V v5 52.1241 / 5.09573 7218 ttn.v3 0.453km -112 -3 868.1MHz, SF9BW125, 4/5CR
2026-05-07 02:43:09 7.8125°C 30.8125% 3.31V v5 52.1241 / 5.09573 7217 ttn.v3 0.453km -108 -0.75 867.5MHz, SF9BW125, 4/5CR
2026-05-07 02:28:06 7.9375°C 30.8125% 3.31V v5 52.1241 / 5.09573 7216 ttn.v3 0.453km -111 -5 868.5MHz, SF9BW125, 4/5CR
2026-05-07 02:13:03 8.1875°C 30.875% 3.31V v5 52.1241 / 5.09573 7215 ttn.v3 0.453km -108 1.25 867.3MHz, SF9BW125, 4/5CR
2026-05-07 01:58:00 8.5625°C 15.1875% 3.31V v5 52.1241 / 5.09573 7214 ttn.v3 0.453km -111 -2 868.3MHz, SF9BW125, 4/5CR
2026-05-07 01:42:57 9°C 110.75% 3.31V v5 52.1241 / 5.09573 7213 ttn.v3 0.453km -108 0.75 867.1MHz, SF9BW125, 4/5CR
2026-05-07 01:27:53 9.4375°C 27.375% 3.31V v5 52.1241 / 5.09573 7212 ttn.v3 0.453km -111 -5.5 868.1MHz, SF9BW125, 4/5CR
2026-05-07 01:12:50 9.8125°C 13.6875% 3.31V v5 52.1241 / 5.09573 7211 ttn.v3 0.453km -113 -4 867.9MHz, SF9BW125, 4/5CR
2026-05-07 00:57:47 10.0625°C 43.75% 3.31V v5 52.1241 / 5.09573 7210 ttn.v3 0.453km -111 -2.75 868.5MHz, SF9BW125, 4/5CR
2026-05-07 00:42:43 10.25°C 49.75% 3.31V v5 52.1241 / 5.09573 7209 ttn.v3 0.453km -109 -0.5 867.7MHz, SF9BW125, 4/5CR
2026-05-07 00:12:36 10.5°C 76.0625% 3.31V v5 52.1241 / 5.09573 7207 ttn.v3 0.453km -109 -0.75 867.5MHz, SF9BW125, 4/5CR
2026-05-06 23:57:32 10.625°C 103% 3.31V v5 52.1241 / 5.09573 7206 ttn.v3 0.453km -114 -3.75 868.1MHz, SF9BW125, 4/5CR
2026-05-06 23:42:28 10.6875°C 114% 3.31V v5 52.1241 / 5.09573 7205 ttn.v3 0.453km -108 -1 867.3MHz, SF9BW125, 4/5CR
2026-05-06 23:27:25 10.875°C -1.125% 3.31V v5 52.1241 / 5.09573 7204 ttn.v3 0.453km -109 -5.25 868.5MHz, SF9BW125, 4/5CR
2026-05-06 23:12:21 10.9375°C 5.6875% 3.31V v5 52.1241 / 5.09573 7203 ttn.v3 0.453km -111 -1.25 867.1MHz, SF9BW125, 4/5CR
5.06km -108 -13 867.1MHz, SF9BW125, 4/5CR
2026-05-06 22:42:13 11.25°C 10.3125% 3.31V v5 52.1241 / 5.09573 7201 ttn.v3 0.453km -113 -6.25 867.9MHz, SF9BW125, 4/5CR
2026-05-06 22:27:42 11.5°C 9.625% 3.31V v5 52.1241 / 5.09573 7200 ttn.v3 0.453km -110 0 868.1MHz, SF12BW125, 4/5CR
2026-05-06 22:12:04 11.75°C 2.4375% 3.31V v5 52.1241 / 5.09573 7199 ttn.v3 0.453km -111 -4.25 867.7MHz, SF9BW125, 4/5CR
2026-05-06 21:41:55 12.0625°C 8.0625% 3.31V v5 52.1241 / 5.09573 7197 ttn.v3 0.453km -108 -2.5 867.5MHz, SF9BW125, 4/5CR
2026-05-06 21:11:47 12.1875°C 99.9375% 3.31V v5 52.1241 / 5.09573 7195 ttn.v3 0.453km -111 -0.5 867.3MHz, SF9BW125, 4/5CR
2026-05-06 20:56:42 12.25°C 85.5% 3.31V v5 52.1241 / 5.09573 7194 ttn.v3 0.453km -113 -6.5 868.1MHz, SF9BW125, 4/5CR
2026-05-06 20:41:38 12.4375°C 79.1875% 3.31V v5 52.1241 / 5.09573 7193 ttn.v3 0.453km -111 1 867.1MHz, SF9BW125, 4/5CR
2026-05-06 20:26:33 12.5°C 79.625% 3.31V v5 52.1241 / 5.09573 7192 ttn.v3 0.453km -108 -1.25 868.5MHz, SF9BW125, 4/5CR
2026-05-06 20:11:29 12.5625°C 79% 3.31V v5 52.1241 / 5.09573 7191 ttn.v3 0.453km -111 -1.25 867.9MHz, SF9BW125, 4/5CR
2026-05-06 19:41:20 13.0625°C 73.5625% 3.31V v5 52.1241 / 5.09573 7189 ttn.v3 0.453km -111 -1 867.7MHz, SF9BW125, 4/5CR
2026-05-06 19:26:15 13.25°C 75.1875% 3.31V v5 52.1241 / 5.09573 7188 ttn.v3 0.453km -111 -6 868.1MHz, SF9BW125, 4/5CR
2026-05-06 19:11:10 13.5°C 74% 3.31V v5 52.1241 / 5.09573 7187 ttn.v3 0.453km -106 1.5 867.5MHz, SF9BW125, 4/5CR
2026-05-06 18:56:05 13.625°C 70.375% 3.31V v5 52.1241 / 5.09573 7186 ttn.v3 0.453km -106 0.25 868.5MHz, SF9BW125, 4/5CR
2026-05-06 18:41:00 13.75°C 69.5625% 3.31V v5 52.1241 / 5.09573 7185 ttn.v3 0.453km -109 2.25 867.3MHz, SF9BW125, 4/5CR
2026-05-06 18:25:54 14°C 70% 3.31V v5 52.1241 / 5.09573 7184 ttn.v3 0.453km -113 -10.25 868.3MHz, SF9BW125, 4/5CR
2026-05-06 18:10:49 14.125°C 68.625% 3.31V v5 52.1241 / 5.09573 7183 ttn.v3 0.453km -113 -3.25 867.1MHz, SF9BW125, 4/5CR
2026-05-06 17:55:44 13.9375°C 69.0625% 3.31V v5 52.1241 / 5.09573 7182 ttn.v3 0.453km -113 -8 868.1MHz, SF9BW125, 4/5CR
2026-05-06 17:40:39 14.625°C 68.625% 3.31V v5 52.1241 / 5.09573 7181 ttn.v3 0.453km -113 -6.75 867.9MHz, SF9BW125, 4/5CR
2026-05-06 17:25:33 14°C 68.8125% 3.31V v5 52.1241 / 5.09573 7180 ttn.v3 0.453km -112 -7.75 868.5MHz, SF9BW125, 4/5CR
2026-05-06 17:10:28 14°C 70.9375% 3.31V v5 52.1241 / 5.09573 7179 ttn.v3 0.453km -109 -1.25 867.7MHz, SF9BW125, 4/5CR
2026-05-06 16:40:18 13.5°C 71.1875% 3.31V v5 52.1241 / 5.09573 7177 ttn.v3 0.453km -110 -5.25 867.5MHz, SF9BW125, 4/5CR
2026-05-06 16:10:08 13.75°C 70.5625% 3.31V v5 52.1241 / 5.09573 7175 ttn.v3 0.453km -108 -0.5 867.3MHz, SF9BW125, 4/5CR
2026-05-06 15:55:03 13.5°C 70.75% 3.31V v5 52.1241 / 5.09573 7174 ttn.v3 0.453km -109 -2.25 868.5MHz, SF9BW125, 4/5CR
2026-05-06 15:39:58 13.75°C 68.625% 3.31V v5 52.1241 / 5.09573 7173 ttn.v3 0.453km -113 -5 867.1MHz, SF9BW125, 4/5CR
2026-05-06 15:09:48 14.25°C 67.75% 3.31V v5 52.1241 / 5.09573 7171 ttn.v3 0.453km -111 -4.5 867.9MHz, SF9BW125, 4/5CR
2026-05-06 14:54:43 14.625°C 63.6875% 3.31V v5 52.1241 / 5.09573 7170 ttn.v3 0.453km -112 0.25 868.1MHz, SF9BW125, 4/5CR
2026-05-06 14:39:37 14.9375°C 64.375% 3.31V v5 52.1241 / 5.09573 7169 ttn.v3 0.453km -108 2.25 867.7MHz, SF9BW125, 4/5CR
2026-05-06 14:24:32 14.5625°C 61.875% 3.31V v5 52.1241 / 5.09573 7168 ttn.v3 0.453km -112 -6 868.5MHz, SF9BW125, 4/5CR
2026-05-06 14:09:27 14.5625°C 64.3125% 3.31V v5 52.1241 / 5.09573 7167 ttn.v3 0.453km -108 -1.75 867.5MHz, SF9BW125, 4/5CR
2026-05-06 13:54:21 14.5°C 66.3125% 3.31V v5 52.1241 / 5.09573 7166 ttn.v3 0.453km -112 -7 868.3MHz, SF9BW125, 4/5CR
2026-05-06 13:39:16 14.8125°C 46.5625% 3.31V v5 52.1241 / 5.09573 7165 ttn.v3 0.453km -109 -1.25 867.3MHz, SF9BW125, 4/5CR
2026-05-06 13:24:11 14.0625°C 82.9375% 3.31V v5 52.1241 / 5.09573 7164 ttn.v3 0.453km -113 -6.5 868.1MHz, SF9BW125, 4/5CR

Message count: 200
Node count: 1

Messages per node

Number of messages in list aboveNodes
200

Statistics per gateway

GatewayNumber of messagesNumber of nodesNodes
2001 (0.453km)
91 (5.06km)

Filter by dataset